KGVT/GVT METAR and TAF weather

Enter ICAO airport designator
Station Type Date Time Source
KGVT METAR 2020/06/03 22:50 UTC NOAA

KGVT 032250Z AUTO 17006KT 10SM CLR 33/17 A2988 RMK AO2


Station Type Date Time Source
KGVT Decoded METAR 2020/06/03 22:50 UTC NOAA

Greenville / Majors, TX, United States (KGVT) 33-04N 096-04W
Jun 03, 2020 - 06:50 PM EDT / 2020.06.03 2250 UTC
Wind: from the S (170 degrees) at 7 MPH (6 KT):0
Visibility: 10 mile(s):0
Sky conditions: clear
Temperature: 91 F (33 C)
Dew Point: 62 F (17 C)
Relative Humidity: 38%
Pressure (altimeter): 29.88 in. Hg (1011 hPa)
ob: KGVT 032250Z AUTO 17006KT 10SM CLR 33/17 A2988 RMK AO2
cycle: 23

Station Type Date Time Source
KGVT TAF UTC NOAA

Error!

Example: see airport list